createdAt,value
2023-04-29T00:01:25.909Z,17.40
2023-04-29T00:03:53.412Z,17.40
2023-04-29T00:06:20.662Z,17.30
2023-04-29T00:08:47.522Z,17.30
2023-04-29T00:11:14.498Z,17.30
2023-04-29T00:13:41.409Z,17.30
2023-04-29T00:16:10.354Z,17.30
2023-04-29T00:18:38.013Z,17.30
2023-04-29T00:21:08.170Z,17.30
2023-04-29T00:23:35.396Z,17.30
2023-04-29T00:26:02.543Z,17.30
2023-04-29T00:28:29.438Z,17.30
2023-04-29T00:30:56.550Z,17.30
2023-04-29T00:33:23.592Z,17.30
2023-04-29T00:35:51.072Z,17.30
2023-04-29T00:38:18.430Z,17.30
2023-04-29T00:40:45.795Z,17.30
2023-04-29T00:43:13.369Z,17.30
2023-04-29T00:45:40.449Z,17.30
2023-04-29T00:48:08.161Z,17.20
2023-04-29T00:50:36.766Z,17.30
2023-04-29T00:53:04.379Z,17.20
2023-04-29T00:55:32.913Z,17.20
2023-04-29T00:58:00.738Z,17.20
2023-04-29T01:00:28.296Z,17.20
2023-04-29T01:02:57.224Z,17.20
2023-04-29T01:05:24.577Z,17.10
2023-04-29T01:08:18.317Z,17.10
2023-04-29T01:10:53.164Z,17.10
2023-04-29T01:13:52.605Z,17.10
2023-04-29T01:16:38.770Z,17.10
2023-04-29T01:19:37.325Z,17.10
2023-04-29T01:22:04.260Z,17.10
2023-04-29T01:24:31.316Z,17.10
2023-04-29T01:27:10.692Z,17.00
2023-04-29T01:29:46.148Z,17.00
2023-04-29T01:32:20.260Z,17.00
2023-04-29T01:34:47.160Z,17.00
2023-04-29T01:37:38.021Z,16.90
2023-04-29T01:40:22.776Z,16.90
2023-04-29T01:43:04.455Z,16.90
2023-04-29T01:45:34.817Z,16.90
2023-04-29T01:48:03.118Z,16.90
2023-04-29T01:50:31.064Z,16.90
2023-04-29T01:53:07.102Z,16.90
2023-04-29T01:55:34.576Z,16.90
2023-04-29T01:58:19.797Z,16.90
2023-04-29T02:00:55.958Z,16.90
2023-04-29T02:03:24.691Z,16.90
2023-04-29T02:05:56.100Z,16.90
2023-04-29T02:08:23.332Z,16.90
2023-04-29T02:10:55.859Z,16.90
2023-04-29T02:13:32.510Z,16.90
2023-04-29T02:16:08.390Z,16.90
2023-04-29T02:18:36.271Z,16.90
2023-04-29T02:21:05.366Z,16.90
2023-04-29T02:23:37.664Z,16.90
2023-04-29T02:26:08.307Z,16.90
2023-04-29T02:28:35.344Z,16.90
2023-04-29T02:31:03.885Z,16.90
2023-04-29T02:33:31.128Z,16.90
2023-04-29T02:35:58.710Z,17.00
2023-04-29T02:38:25.857Z,17.00
2023-04-29T02:40:52.846Z,17.00
2023-04-29T02:43:21.784Z,17.00
2023-04-29T02:45:48.824Z,17.00
2023-04-29T02:48:16.009Z,17.00
2023-04-29T02:50:42.864Z,17.00
2023-04-29T02:53:09.840Z,17.00
2023-04-29T02:55:36.737Z,17.00
2023-04-29T02:58:08.286Z,17.00
2023-04-29T03:00:35.138Z,17.00
2023-04-29T03:03:02.170Z,17.00
2023-04-29T03:05:29.359Z,17.10
2023-04-29T03:07:56.285Z,17.10
2023-04-29T03:10:23.237Z,17.00
2023-04-29T03:12:50.118Z,17.00
2023-04-29T03:15:17.129Z,17.00
2023-04-29T03:17:46.399Z,17.00
2023-04-29T03:20:13.893Z,17.00
2023-04-29T03:22:40.756Z,17.00
2023-04-29T03:25:08.201Z,17.00
2023-04-29T03:27:35.090Z,17.00
2023-04-29T03:30:02.762Z,17.00
2023-04-29T03:32:30.093Z,17.00
2023-04-29T03:34:57.745Z,17.00
2023-04-29T03:37:32.566Z,17.00
2023-04-29T03:40:14.122Z,17.00
2023-04-29T03:42:42.342Z,17.00
2023-04-29T03:45:10.114Z,17.00
2023-04-29T03:47:37.039Z,17.00
2023-04-29T03:50:04.507Z,17.00
2023-04-29T03:52:31.607Z,17.00
2023-04-29T03:55:03.289Z,17.00
2023-04-29T03:57:30.667Z,17.00
2023-04-29T03:59:57.892Z,17.00
2023-04-29T04:02:25.076Z,17.00
2023-04-29T04:04:52.553Z,17.00
2023-04-29T04:07:19.486Z,17.00
2023-04-29T04:10:05.454Z,17.00
2023-04-29T04:12:32.757Z,17.00
2023-04-29T04:14:59.745Z,17.00
2023-04-29T04:17:27.704Z,16.90
2023-04-29T04:19:54.967Z,16.90
2023-04-29T04:22:21.900Z,16.90
2023-04-29T04:25:05.443Z,16.90
2023-04-29T04:27:33.038Z,16.90
2023-04-29T04:30:04.669Z,16.90
2023-04-29T04:32:32.534Z,16.90
2023-04-29T04:34:59.343Z,16.90
2023-04-29T04:37:27.086Z,16.90
2023-04-29T04:39:56.556Z,16.90
2023-04-29T04:42:23.579Z,16.90
2023-04-29T04:44:53.992Z,16.90
2023-04-29T04:47:31.767Z,16.90
2023-04-29T04:50:04.393Z,16.90
2023-04-29T04:52:31.568Z,16.90
2023-04-29T04:55:25.016Z,16.90
2023-04-29T04:57:51.937Z,16.90
2023-04-29T05:00:19.496Z,16.90
2023-04-29T05:02:46.546Z,16.90
2023-04-29T05:05:13.486Z,16.90
2023-04-29T05:07:42.202Z,16.90
2023-04-29T05:10:09.867Z,16.90
2023-04-29T05:12:44.899Z,17.00
2023-04-29T05:15:12.624Z,17.00
2023-04-29T05:17:39.631Z,17.00
2023-04-29T05:20:07.689Z,17.00
2023-04-29T05:22:34.536Z,17.00
2023-04-29T05:25:03.794Z,17.00
2023-04-29T05:27:33.302Z,17.00
2023-04-29T05:30:01.396Z,17.00
2023-04-29T05:32:28.368Z,17.00
2023-04-29T05:34:55.470Z,17.10
2023-04-29T05:37:22.373Z,17.10
2023-04-29T05:40:02.307Z,17.10
2023-04-29T05:42:30.053Z,17.00
2023-04-29T05:44:56.979Z,17.10
2023-04-29T05:47:23.982Z,17.10
2023-04-29T05:49:51.533Z,17.10
2023-04-29T05:52:18.641Z,17.10
2023-04-29T05:54:48.804Z,17.10
2023-04-29T05:57:15.662Z,17.10
2023-04-29T05:59:42.905Z,17.10
2023-04-29T06:02:11.013Z,17.10
2023-04-29T06:04:41.449Z,17.10
2023-04-29T06:07:20.277Z,17.20
2023-04-29T06:09:56.282Z,17.10
2023-04-29T06:12:25.393Z,17.20
2023-04-29T06:14:52.376Z,17.10
2023-04-29T06:17:20.356Z,17.20
2023-04-29T06:19:47.207Z,17.20
2023-04-29T06:22:14.087Z,17.20
2023-04-29T06:24:49.690Z,17.20
2023-04-29T06:27:25.265Z,17.20
2023-04-29T06:29:52.362Z,17.30
2023-04-29T06:32:19.370Z,17.30
2023-04-29T06:34:46.929Z,17.20
2023-04-29T06:37:32.244Z,17.30
2023-04-29T06:40:20.731Z,17.30
2023-04-29T06:43:06.206Z,17.30
2023-04-29T06:45:42.621Z,17.30
2023-04-29T06:48:18.532Z,17.30
2023-04-29T06:50:51.411Z,17.30
2023-04-29T06:53:18.606Z,17.40
2023-04-29T06:55:46.429Z,17.40
2023-04-29T06:58:14.441Z,17.30
2023-04-29T07:00:44.332Z,17.30
2023-04-29T07:03:11.486Z,17.40
2023-04-29T07:05:42.116Z,17.40
2023-04-29T07:08:10.390Z,17.40
2023-04-29T07:10:37.397Z,17.40
2023-04-29T07:13:04.887Z,17.40
2023-04-29T07:15:35.211Z,17.40
2023-04-29T07:18:05.645Z,17.40
2023-04-29T07:20:32.996Z,17.40
2023-04-29T07:22:59.873Z,17.40
2023-04-29T07:25:29.258Z,17.40
2023-04-29T07:27:57.055Z,17.40
2023-04-29T07:30:25.583Z,17.50
2023-04-29T07:32:52.598Z,17.40
2023-04-29T07:35:19.686Z,17.40
2023-04-29T07:37:46.874Z,17.40
2023-04-29T07:40:14.045Z,17.40
2023-04-29T07:42:40.998Z,17.50
2023-04-29T07:45:08.417Z,17.50
2023-04-29T07:47:35.408Z,17.50
2023-04-29T07:50:02.794Z,17.50
2023-04-29T07:52:29.729Z,17.50
2023-04-29T07:54:56.640Z,17.60
2023-04-29T07:57:23.816Z,17.60
2023-04-29T07:59:54.746Z,17.60
2023-04-29T08:02:22.029Z,17.70
2023-04-29T08:04:51.489Z,17.70
2023-04-29T08:07:18.867Z,17.70
2023-04-29T08:09:45.754Z,17.70
2023-04-29T08:12:12.750Z,17.70
2023-04-29T08:14:40.804Z,17.70
2023-04-29T08:17:08.330Z,17.80
2023-04-29T08:19:35.825Z,17.80
2023-04-29T08:22:04.280Z,17.80
2023-04-29T08:24:31.207Z,17.80
2023-04-29T08:26:59.226Z,17.90
2023-04-29T08:29:26.151Z,17.90
2023-04-29T08:31:53.140Z,17.90
2023-04-29T08:34:20.055Z,17.90
2023-04-29T08:36:46.881Z,17.90
2023-04-29T08:39:13.758Z,18.00
2023-04-29T08:41:40.776Z,18.00
2023-04-29T08:44:07.654Z,18.00
2023-04-29T08:46:34.779Z,18.00
2023-04-29T08:49:04.076Z,18.00
2023-04-29T08:51:33.170Z,18.00
2023-04-29T08:54:00.322Z,18.00
2023-04-29T08:56:28.874Z,18.00
2023-04-29T08:58:58.913Z,18.00
2023-04-29T09:01:30.037Z,18.00
2023-04-29T09:04:04.801Z,18.00
2023-04-29T09:06:33.415Z,18.00
2023-04-29T09:09:02.106Z,18.00
2023-04-29T09:11:30.415Z,18.10
2023-04-29T09:14:01.576Z,18.10
2023-04-29T09:16:29.304Z,18.10
2023-04-29T09:18:57.013Z,18.10
2023-04-29T09:21:25.401Z,18.10
2023-04-29T09:23:54.814Z,18.10
2023-04-29T09:26:22.504Z,18.10
2023-04-29T09:29:11.258Z,18.10
2023-04-29T09:31:39.575Z,18.20
2023-04-29T09:34:06.836Z,18.20
2023-04-29T09:36:47.835Z,18.20
2023-04-29T09:39:19.111Z,18.20
2023-04-29T09:41:55.157Z,18.20
2023-04-29T09:44:25.915Z,18.20
2023-04-29T09:47:07.458Z,18.20
2023-04-29T09:49:46.023Z,18.20
2023-04-29T09:52:15.105Z,18.20
2023-04-29T09:54:43.561Z,18.30
2023-04-29T09:57:12.132Z,18.30
2023-04-29T09:59:40.621Z,18.30
2023-04-29T10:02:15.301Z,18.30
2023-04-29T10:04:44.589Z,18.30
2023-04-29T10:07:16.799Z,18.30
2023-04-29T10:09:49.037Z,18.30
2023-04-29T10:12:21.208Z,18.30
2023-04-29T10:15:02.659Z,18.40
2023-04-29T10:17:45.979Z,18.40
2023-04-29T10:20:24.582Z,18.40
2023-04-29T10:22:54.748Z,18.40
2023-04-29T10:25:23.631Z,18.40
2023-04-29T10:27:54.127Z,18.40
2023-04-29T10:30:22.679Z,18.40
2023-04-29T10:32:52.028Z,18.40
2023-04-29T10:35:23.842Z,18.40
2023-04-29T10:37:51.503Z,18.40
2023-04-29T10:40:40.259Z,18.40
2023-04-29T10:43:07.146Z,18.40
2023-04-29T10:45:36.823Z,18.40
2023-04-29T10:48:06.775Z,18.40
2023-04-29T10:50:47.980Z,18.40
2023-04-29T10:53:16.855Z,18.50
2023-04-29T10:55:48.333Z,18.50
2023-04-29T10:58:33.894Z,18.40
2023-04-29T11:01:01.083Z,18.50
2023-04-29T11:04:00.686Z,18.50
2023-04-29T11:06:36.742Z,18.40
2023-04-29T11:09:08.018Z,18.50
2023-04-29T11:12:07.767Z,18.50
2023-04-29T11:14:43.174Z,18.50
2023-04-29T11:17:12.835Z,18.50
2023-04-29T11:19:49.664Z,18.50
2023-04-29T11:22:19.234Z,18.50
2023-04-29T11:25:07.360Z,18.60
2023-04-29T11:27:36.555Z,18.50
2023-04-29T11:30:05.285Z,18.60
2023-04-29T11:32:37.876Z,18.60
2023-04-29T11:35:09.016Z,18.60
2023-04-29T11:37:36.925Z,18.60
2023-04-29T11:40:05.249Z,18.70
2023-04-29T11:42:54.762Z,18.70
2023-04-29T11:45:21.696Z,18.70
2023-04-29T11:47:49.495Z,18.70
2023-04-29T11:50:20.169Z,18.70
2023-04-29T11:52:48.364Z,18.70
2023-04-29T11:55:15.495Z,18.70
2023-04-29T11:57:42.553Z,18.70
2023-04-29T12:00:14.428Z,18.70
2023-04-29T12:02:46.272Z,18.70
2023-04-29T12:05:14.177Z,18.70
2023-04-29T12:07:41.489Z,18.70
2023-04-29T12:10:10.886Z,18.70
2023-04-29T12:12:41.027Z,18.70
2023-04-29T12:15:10.301Z,18.70
2023-04-29T12:17:38.780Z,18.70
2023-04-29T12:20:10.716Z,18.60
2023-04-29T12:22:37.970Z,18.60
2023-04-29T12:25:05.687Z,18.60
2023-04-29T12:27:34.528Z,18.60
2023-04-29T12:30:01.491Z,18.60
2023-04-29T12:32:28.425Z,18.70
2023-04-29T12:34:55.892Z,18.70
2023-04-29T12:37:23.697Z,18.70
2023-04-29T12:39:51.509Z,18.80
2023-04-29T12:42:18.558Z,18.80
2023-04-29T12:44:49.052Z,18.80
2023-04-29T12:47:16.839Z,18.80
2023-04-29T12:49:45.734Z,18.80
2023-04-29T12:52:13.434Z,18.80
2023-04-29T12:54:41.905Z,18.90
2023-04-29T12:57:11.940Z,18.90
2023-04-29T12:59:40.875Z,18.90
2023-04-29T13:02:08.228Z,18.90
2023-04-29T13:04:35.507Z,18.90
2023-04-29T13:07:04.136Z,18.90
2023-04-29T13:09:31.412Z,18.90
2023-04-29T13:11:59.273Z,18.90
2023-04-29T13:14:27.007Z,18.90
2023-04-29T13:16:54.132Z,19.00
2023-04-29T13:19:30.447Z,19.00
2023-04-29T13:22:09.185Z,19.00
2023-04-29T13:24:36.807Z,19.00
2023-04-29T13:27:04.121Z,19.10
2023-04-29T13:29:31.183Z,19.10
2023-04-29T13:31:58.106Z,19.10
2023-04-29T13:34:25.098Z,19.20
2023-04-29T13:36:51.982Z,19.20
2023-04-29T13:39:20.349Z,19.20
2023-04-29T13:41:47.455Z,19.30
2023-04-29T13:46:44.513Z,19.40
2023-04-29T13:49:35.526Z,19.40
2023-04-29T13:52:25.916Z,19.40
2023-04-29T13:58:03.004Z,19.50
2023-04-29T14:00:14.638Z,19.50
2023-04-29T14:05:25.304Z,19.60
2023-04-29T14:07:52.553Z,19.60
2023-04-29T14:10:19.480Z,19.60
2023-04-29T14:12:46.387Z,19.70
2023-04-29T14:15:13.701Z,19.70
2023-04-29T14:17:40.699Z,19.70
2023-04-29T14:20:08.496Z,19.70
2023-04-29T14:22:35.587Z,19.70
2023-04-29T14:25:02.452Z,19.70
2023-04-29T14:27:29.327Z,19.70
2023-04-29T14:29:56.267Z,19.70
2023-04-29T14:32:23.190Z,19.70
2023-04-29T14:34:50.192Z,19.70
2023-04-29T14:37:17.144Z,19.70
2023-04-29T14:39:44.051Z,19.70
2023-04-29T14:42:11.113Z,19.70
2023-04-29T14:44:37.911Z,19.70
2023-04-29T14:47:05.057Z,19.80
2023-04-29T14:49:31.991Z,19.70
2023-04-29T14:51:58.935Z,19.70
2023-04-29T14:54:27.143Z,19.70
2023-04-29T14:56:54.169Z,19.70
2023-04-29T14:59:21.158Z,19.70
2023-04-29T15:01:48.798Z,19.70
2023-04-29T15:04:16.149Z,19.70
2023-04-29T15:06:43.381Z,19.70
2023-04-29T15:09:10.286Z,19.80
2023-04-29T15:11:37.216Z,19.70
2023-04-29T15:14:04.157Z,19.70
2023-04-29T15:16:31.682Z,19.70
2023-04-29T15:18:59.259Z,19.70
2023-04-29T15:21:26.846Z,19.70
2023-04-29T15:23:53.843Z,19.70
2023-04-29T15:26:21.796Z,19.70
2023-04-29T15:28:48.780Z,19.70
2023-04-29T15:31:15.629Z,19.70
2023-04-29T15:33:42.534Z,19.70
2023-04-29T15:36:09.466Z,19.70
2023-04-29T15:38:36.296Z,19.80
2023-04-29T15:41:03.992Z,19.80
2023-04-29T15:43:31.936Z,19.80
2023-04-29T15:45:59.823Z,19.80
2023-04-29T15:48:26.841Z,19.80
2023-04-29T15:50:53.750Z,19.80
2023-04-29T15:53:20.676Z,19.70
2023-04-29T15:55:47.486Z,19.70
2023-04-29T15:58:14.375Z,19.80
2023-04-29T16:00:41.267Z,19.70
2023-04-29T16:03:08.144Z,19.70
2023-04-29T16:05:36.927Z,19.70
2023-04-29T16:08:03.882Z,19.60
2023-04-29T16:10:30.814Z,19.60
2023-04-29T16:12:57.722Z,19.60
2023-04-29T16:15:24.859Z,19.60
2023-04-29T16:17:52.389Z,19.60
2023-04-29T16:20:20.672Z,19.60
2023-04-29T16:22:47.512Z,19.50
2023-04-29T16:25:14.436Z,19.50
2023-04-29T16:27:41.421Z,19.50
2023-04-29T16:30:08.753Z,19.50
2023-04-29T16:32:35.699Z,19.40
2023-04-29T16:35:02.537Z,19.40
2023-04-29T16:37:29.399Z,19.40
2023-04-29T16:39:56.616Z,19.40
2023-04-29T16:42:23.445Z,19.40
2023-04-29T16:44:50.610Z,19.30
2023-04-29T16:47:20.241Z,19.30
2023-04-29T16:49:47.499Z,19.30
2023-04-29T16:52:14.511Z,19.20
2023-04-29T16:54:41.613Z,19.10
2023-04-29T16:57:08.649Z,19.10
2023-04-29T16:59:35.598Z,19.10
2023-04-29T17:02:03.088Z,19.10
2023-04-29T17:04:33.182Z,19.00
2023-04-29T17:07:01.431Z,19.00
2023-04-29T17:09:28.396Z,18.90
2023-04-29T17:11:55.285Z,18.90
2023-04-29T17:14:22.435Z,18.90
2023-04-29T17:16:49.413Z,18.90
2023-04-29T17:19:16.759Z,18.90
2023-04-29T17:21:43.645Z,18.90
2023-04-29T17:24:10.582Z,18.80
2023-04-29T17:26:37.579Z,18.80
2023-04-29T17:29:04.481Z,18.80
2023-04-29T17:31:44.928Z,18.80
2023-04-29T17:34:18.802Z,18.70
2023-04-29T17:36:47.104Z,18.70
2023-04-29T17:39:14.031Z,18.70
2023-04-29T17:41:41.211Z,18.70
2023-04-29T17:44:08.738Z,18.70
2023-04-29T17:46:36.656Z,18.70
2023-04-29T17:49:04.104Z,18.70
2023-04-29T17:51:34.767Z,18.60
2023-04-29T17:54:02.451Z,18.70
2023-04-29T17:56:29.344Z,18.60
2023-04-29T17:58:56.190Z,18.60
2023-04-29T18:01:23.214Z,18.60
2023-04-29T18:03:52.868Z,18.60
2023-04-29T18:06:19.895Z,18.60
2023-04-29T18:08:46.806Z,18.60
2023-04-29T18:11:13.854Z,18.60
2023-04-29T18:13:41.299Z,18.50
2023-04-29T18:16:08.788Z,18.50
2023-04-29T18:18:37.246Z,18.50
2023-04-29T18:21:04.835Z,18.50
2023-04-29T18:23:31.719Z,18.50
2023-04-29T18:25:58.622Z,18.50
2023-04-29T18:28:25.817Z,18.50
2023-04-29T18:30:53.047Z,18.40
2023-04-29T18:33:20.145Z,18.40
2023-04-29T18:35:47.091Z,18.40
2023-04-29T18:38:17.319Z,18.40
2023-04-29T18:40:44.646Z,18.40
2023-04-29T18:43:12.096Z,18.30
2023-04-29T18:45:39.015Z,18.30
2023-04-29T18:48:07.032Z,18.30
2023-04-29T18:50:34.221Z,18.30
2023-04-29T18:53:01.225Z,18.30
2023-04-29T18:55:28.193Z,18.30
2023-04-29T18:57:55.011Z,18.20
2023-04-29T19:00:21.922Z,18.20
2023-04-29T19:02:49.697Z,18.20
2023-04-29T19:05:16.790Z,18.20
2023-04-29T19:07:43.871Z,18.20
2023-04-29T19:10:10.936Z,18.20
2023-04-29T19:12:37.850Z,18.10
2023-04-29T19:15:05.147Z,18.10
2023-04-29T19:17:32.062Z,18.10
2023-04-29T19:19:58.879Z,18.10
2023-04-29T19:22:27.271Z,18.10
2023-04-29T19:24:54.126Z,18.00
2023-04-29T19:27:21.294Z,18.00
2023-04-29T19:29:48.101Z,18.00
2023-04-29T19:32:15.122Z,18.00
2023-04-29T19:34:41.973Z,18.00
2023-04-29T19:37:09.051Z,18.00
2023-04-29T19:39:35.875Z,17.90
2023-04-29T19:42:04.048Z,18.00
2023-04-29T19:44:30.948Z,18.00
2023-04-29T19:46:57.873Z,17.90
2023-04-29T19:49:24.961Z,17.90
2023-04-29T19:51:52.004Z,17.90
2023-04-29T19:54:19.150Z,17.90
2023-04-29T19:56:46.059Z,17.90
2023-04-29T19:59:13.329Z,17.90
2023-04-29T20:01:40.468Z,17.90
2023-04-29T20:04:07.261Z,17.90
2023-04-29T20:06:35.122Z,17.90
2023-04-29T20:09:02.047Z,17.90
2023-04-29T20:11:28.898Z,17.90
2023-04-29T20:13:55.745Z,17.90
2023-04-29T20:16:23.626Z,17.90
2023-04-29T20:18:50.673Z,17.90
2023-04-29T20:21:17.551Z,17.80
2023-04-29T20:23:44.599Z,17.90
2023-04-29T20:26:11.580Z,17.80
2023-04-29T20:28:38.850Z,17.80
2023-04-29T20:31:06.875Z,17.80
2023-04-29T20:33:33.701Z,17.80
2023-04-29T20:36:06.349Z,17.80
2023-04-29T20:38:36.629Z,17.80
2023-04-29T20:41:05.892Z,17.80
2023-04-29T20:43:32.824Z,17.80
2023-04-29T20:46:00.536Z,17.80
2023-04-29T20:48:28.352Z,17.80
2023-04-29T20:50:55.535Z,17.80
2023-04-29T20:53:22.428Z,17.80
2023-04-29T20:55:49.355Z,17.80
2023-04-29T20:58:16.429Z,17.80
2023-04-29T21:00:43.499Z,17.70
2023-04-29T21:03:10.793Z,17.80
2023-04-29T21:05:37.684Z,17.80
2023-04-29T21:08:04.783Z,17.70
2023-04-29T21:10:31.760Z,17.80
2023-04-29T21:12:58.660Z,17.80
2023-04-29T21:15:27.042Z,17.80
2023-04-29T21:17:53.882Z,17.80
2023-04-29T21:20:21.416Z,17.80
2023-04-29T21:22:48.237Z,17.80
2023-04-29T21:25:15.190Z,17.80
2023-04-29T21:27:42.040Z,17.80
2023-04-29T21:30:09.283Z,17.80
2023-04-29T21:32:36.144Z,17.90
2023-04-29T21:35:03.372Z,17.80
2023-04-29T21:37:30.843Z,17.90
2023-04-29T21:40:00.217Z,17.90
2023-04-29T21:42:27.418Z,17.90
2023-04-29T21:44:59.354Z,17.90
2023-04-29T21:47:27.770Z,17.90
2023-04-29T21:49:55.576Z,17.90
2023-04-29T21:52:22.736Z,17.90
2023-04-29T21:54:49.927Z,17.90
2023-04-29T21:57:16.745Z,17.90
2023-04-29T21:59:43.533Z,17.90
2023-04-29T22:02:22.471Z,17.90
2023-04-29T22:04:51.365Z,17.90
2023-04-29T22:07:19.646Z,17.90
2023-04-29T22:09:49.655Z,17.90
2023-04-29T22:12:18.371Z,17.90
2023-04-29T22:14:45.872Z,17.90
2023-04-29T22:17:13.634Z,17.90
2023-04-29T22:19:40.854Z,17.90
2023-04-29T22:22:07.774Z,17.90
2023-04-29T22:24:34.627Z,17.90
2023-04-29T22:27:02.017Z,17.90
2023-04-29T22:29:28.839Z,17.90
2023-04-29T22:31:56.171Z,17.80
2023-04-29T22:34:23.145Z,17.80
2023-04-29T22:36:50.150Z,17.80
2023-04-29T22:39:16.984Z,17.80
2023-04-29T22:41:44.267Z,17.80
2023-04-29T22:44:11.116Z,17.70
2023-04-29T22:46:38.219Z,17.70
2023-04-29T22:49:05.014Z,17.70
2023-04-29T22:51:32.223Z,17.70
2023-04-29T22:53:59.179Z,17.70
2023-04-29T22:56:26.243Z,17.70
2023-04-29T22:58:53.046Z,17.70
2023-04-29T23:01:19.855Z,17.70
2023-04-29T23:03:46.759Z,17.70
2023-04-29T23:06:13.660Z,17.70
2023-04-29T23:08:40.590Z,17.70
2023-04-29T23:11:07.568Z,17.70
2023-04-29T23:13:34.355Z,17.70
2023-04-29T23:16:02.386Z,17.70
2023-04-29T23:18:29.520Z,17.70
2023-04-29T23:20:57.225Z,17.70
2023-04-29T23:23:24.627Z,17.70
2023-04-29T23:25:51.409Z,17.70
2023-04-29T23:28:18.255Z,17.70
2023-04-29T23:30:47.776Z,17.70
2023-04-29T23:33:15.066Z,17.70
2023-04-29T23:35:41.865Z,17.70
2023-04-29T23:38:08.769Z,17.70
2023-04-29T23:40:35.645Z,17.70
2023-04-29T23:43:02.442Z,17.60
2023-04-29T23:45:29.195Z,17.60
2023-04-29T23:47:56.606Z,17.60
2023-04-29T23:50:23.694Z,17.60
2023-04-29T23:52:50.989Z,17.60
2023-04-29T23:55:17.908Z,17.60
2023-04-29T23:57:44.776Z,17.60
